createdAt,value
2019-01-26T00:00:08.198Z,72.32
2019-01-26T00:01:42.214Z,72.43
2019-01-26T00:03:16.036Z,72.09
2019-01-26T00:04:49.706Z,72.38
2019-01-26T00:06:23.645Z,72.36
2019-01-26T00:07:56.621Z,72.49
2019-01-26T00:09:32.528Z,72.12
2019-01-26T00:11:06.540Z,72.50
2019-01-26T00:12:39.435Z,72.11
2019-01-26T00:14:12.292Z,72.53
2019-01-26T00:15:46.408Z,72.51
2019-01-26T00:17:21.441Z,72.54
2019-01-26T00:18:55.416Z,72.50
2019-01-26T00:20:30.587Z,72.65
2019-01-26T00:22:03.471Z,72.64
2019-01-26T00:23:37.164Z,72.62
2019-01-26T00:25:11.234Z,72.53
2019-01-26T00:26:44.123Z,72.36
2019-01-26T00:28:18.434Z,72.26
2019-01-26T00:29:52.332Z,72.26
2019-01-26T00:31:26.350Z,72.42
2019-01-26T00:33:00.366Z,72.48
2019-01-26T00:34:34.286Z,72.39
2019-01-26T00:36:08.064Z,72.11
2019-01-26T00:37:42.096Z,72.60
2019-01-26T00:39:15.328Z,72.58
2019-01-26T00:40:49.474Z,72.59
2019-01-26T00:42:23.660Z,72.28
2019-01-26T00:43:57.728Z,72.50
2019-01-26T00:45:32.095Z,72.26
2019-01-26T00:47:06.452Z,72.36
2019-01-26T00:48:40.723Z,72.46
2019-01-26T00:50:13.754Z,72.55
2019-01-26T00:51:47.788Z,72.25
2019-01-26T00:53:22.223Z,72.27
2019-01-26T00:54:56.199Z,72.42
2019-01-26T00:56:30.009Z,72.25
2019-01-26T00:58:03.111Z,72.64
2019-01-26T00:59:36.995Z,72.60
2019-01-26T01:01:10.117Z,72.11
2019-01-26T01:02:44.497Z,72.17
2019-01-26T01:04:18.491Z,72.18
2019-01-26T01:05:52.518Z,72.21
2019-01-26T01:07:26.322Z,72.68
2019-01-26T01:08:59.296Z,71.98
2019-01-26T01:10:34.055Z,72.10
2019-01-26T01:12:22.894Z,72.42
2019-01-26T01:13:56.646Z,72.50
2019-01-26T01:15:31.519Z,72.80
2019-01-26T01:17:06.033Z,72.26
2019-01-26T01:18:40.019Z,72.47
2019-01-26T01:20:13.579Z,72.82
2019-01-26T01:21:46.472Z,72.79
2019-01-26T01:23:19.350Z,72.26
2019-01-26T01:24:52.275Z,72.42
2019-01-26T01:26:26.233Z,72.47
2019-01-26T01:27:59.091Z,72.40
2019-01-26T01:29:31.973Z,72.68
2019-01-26T01:31:05.031Z,72.51
2019-01-26T01:32:41.830Z,72.84
2019-01-26T01:34:14.680Z,72.89
2019-01-26T01:35:47.990Z,72.66
2019-01-26T01:37:22.147Z,72.57
2019-01-26T01:38:57.183Z,72.82
2019-01-26T01:40:31.149Z,72.73
2019-01-26T01:42:05.153Z,72.57
2019-01-26T01:43:39.591Z,72.70
2019-01-26T01:45:13.338Z,72.43
2019-01-26T01:46:47.457Z,72.88
2019-01-26T01:48:20.528Z,72.71
2019-01-26T01:49:54.592Z,72.85
2019-01-26T01:51:28.481Z,72.63
2019-01-26T01:53:01.436Z,72.57
2019-01-26T01:54:35.751Z,72.56
2019-01-26T01:56:08.960Z,72.53
2019-01-26T01:57:41.918Z,72.90
2019-01-26T01:59:15.410Z,72.70
2019-01-26T02:00:48.281Z,72.92
2019-01-26T02:02:21.380Z,72.93
2019-01-26T02:03:54.592Z,72.71
2019-01-26T02:05:28.647Z,72.63
2019-01-26T02:07:02.874Z,72.54
2019-01-26T02:08:37.053Z,72.52
2019-01-26T02:10:10.151Z,72.71
2019-01-26T02:11:44.057Z,72.77
2019-01-26T02:13:17.222Z,72.42
2019-01-26T02:14:51.531Z,72.88
2019-01-26T02:16:24.367Z,72.34
2019-01-26T02:17:57.278Z,72.69
2019-01-26T02:19:30.154Z,72.80
2019-01-26T02:21:02.998Z,72.93
2019-01-26T02:22:36.911Z,72.62
2019-01-26T02:24:09.831Z,72.55
2019-01-26T02:25:42.867Z,73.04
2019-01-26T02:27:15.874Z,72.87
2019-01-26T02:28:49.842Z,72.74
2019-01-26T02:30:26.578Z,72.96
2019-01-26T02:31:59.764Z,72.42
2019-01-26T02:33:33.833Z,72.45
2019-01-26T02:35:06.764Z,72.49
2019-01-26T02:36:39.514Z,72.78
2019-01-26T02:38:13.748Z,72.78
2019-01-26T02:39:49.185Z,72.38
2019-01-26T02:41:22.400Z,72.99
2019-01-26T02:42:55.342Z,72.59
2019-01-26T02:44:28.274Z,72.86
2019-01-26T02:46:01.807Z,72.77
2019-01-26T02:47:36.008Z,72.44
2019-01-26T02:49:08.797Z,72.80
2019-01-26T02:50:43.059Z,72.51
2019-01-26T02:52:15.992Z,72.36
2019-01-26T02:53:49.316Z,72.23
2019-01-26T02:55:23.224Z,72.61
2019-01-26T02:56:56.296Z,72.65
2019-01-26T02:58:30.367Z,72.30
2019-01-26T03:00:04.621Z,72.40
2019-01-26T03:01:38.606Z,72.74
2019-01-26T03:03:12.932Z,72.86
2019-01-26T03:04:47.515Z,72.19
2019-01-26T03:06:21.587Z,72.36
2019-01-26T03:07:55.430Z,72.57
2019-01-26T03:09:30.687Z,72.63
2019-01-26T03:11:04.677Z,72.66
2019-01-26T03:12:37.648Z,72.60
2019-01-26T03:14:11.101Z,72.48
2019-01-26T03:15:46.407Z,72.81
2019-01-26T03:17:21.231Z,72.55
2019-01-26T03:18:56.009Z,72.74
2019-01-26T03:20:31.869Z,72.84
2019-01-26T03:22:06.183Z,72.82
2019-01-26T03:23:40.522Z,72.59
2019-01-26T03:25:13.340Z,72.83
2019-01-26T03:26:46.988Z,71.70
2019-01-26T03:28:21.105Z,72.49
2019-01-26T03:29:54.849Z,72.41
2019-01-26T03:31:28.964Z,72.54
2019-01-26T03:33:01.977Z,72.71
2019-01-26T03:34:35.791Z,72.68
2019-01-26T03:36:08.647Z,72.61
2019-01-26T03:37:41.732Z,73.04
2019-01-26T03:39:15.640Z,72.89
2019-01-26T03:40:49.554Z,72.43
2019-01-26T03:42:23.220Z,72.91
2019-01-26T03:43:56.051Z,72.43
2019-01-26T03:45:29.902Z,72.60
2019-01-26T03:47:02.748Z,72.70
2019-01-26T03:48:35.740Z,72.54
2019-01-26T03:50:08.883Z,72.39
2019-01-26T03:51:42.775Z,72.91
2019-01-26T03:53:16.470Z,72.66
2019-01-26T03:54:50.382Z,72.58
2019-01-26T03:56:23.334Z,72.94
2019-01-26T03:57:57.300Z,72.74
2019-01-26T03:59:30.126Z,72.42
2019-01-26T04:01:03.120Z,72.79
2019-01-26T04:02:36.187Z,72.67
2019-01-26T04:04:09.128Z,72.99
2019-01-26T04:05:42.961Z,72.66
2019-01-26T04:07:16.018Z,72.67
2019-01-26T04:08:49.866Z,72.51
2019-01-26T04:10:24.860Z,72.73
2019-01-26T04:11:57.803Z,72.55
2019-01-26T04:13:31.337Z,72.80
2019-01-26T04:15:04.755Z,72.98
2019-01-26T04:16:37.603Z,72.94
2019-01-26T04:18:11.917Z,72.81
2019-01-26T04:19:45.273Z,72.85
2019-01-26T04:21:18.295Z,72.74
2019-01-26T04:22:51.663Z,72.64
2019-01-26T04:24:24.555Z,72.94
2019-01-26T04:25:58.296Z,72.74
2019-01-26T04:27:31.270Z,73.23
2019-01-26T04:29:05.634Z,72.73
2019-01-26T04:30:40.109Z,72.94
2019-01-26T04:32:13.454Z,73.05
2019-01-26T04:33:47.198Z,72.77
2019-01-26T04:35:20.131Z,73.29
2019-01-26T04:36:54.248Z,72.66
2019-01-26T04:38:28.339Z,73.43
2019-01-26T04:40:01.254Z,73.33
2019-01-26T04:41:35.366Z,73.03
2019-01-26T04:43:09.223Z,73.17
2019-01-26T04:44:42.123Z,73.17
2019-01-26T04:46:14.967Z,72.83
2019-01-26T04:47:47.902Z,72.63
2019-01-26T04:49:20.937Z,72.73
2019-01-26T04:50:54.881Z,73.07
2019-01-26T04:52:27.821Z,73.33
2019-01-26T04:54:01.663Z,72.75
2019-01-26T04:55:35.437Z,72.99
2019-01-26T04:57:08.314Z,73.18
2019-01-26T04:58:42.168Z,73.11
2019-01-26T05:00:15.066Z,73.00
2019-01-26T05:01:47.881Z,73.46
2019-01-26T05:03:20.883Z,73.41
2019-01-26T05:04:53.683Z,72.93
2019-01-26T05:06:26.716Z,72.92
2019-01-26T05:08:00.622Z,73.43
2019-01-26T05:09:34.650Z,72.83
2019-01-26T05:11:08.649Z,73.16
2019-01-26T05:12:42.381Z,72.54
2019-01-26T05:14:15.395Z,73.16
2019-01-26T05:15:48.311Z,72.91
2019-01-26T05:17:22.197Z,73.05
2019-01-26T05:18:56.130Z,72.78
2019-01-26T05:20:32.250Z,72.80
2019-01-26T05:22:06.581Z,73.15
2019-01-26T05:23:39.911Z,73.12
2019-01-26T05:25:14.257Z,73.43
2019-01-26T05:26:48.447Z,73.26
2019-01-26T05:28:22.883Z,73.04
2019-01-26T05:29:57.227Z,73.43
2019-01-26T05:31:31.203Z,73.29
2019-01-26T05:33:04.607Z,73.29
2019-01-26T05:34:38.920Z,73.25
2019-01-26T05:36:12.816Z,73.45
2019-01-26T05:37:46.781Z,73.30
2019-01-26T05:39:21.685Z,72.59
2019-01-26T05:40:55.878Z,73.41
2019-01-26T05:42:29.326Z,73.09
2019-01-26T05:44:02.215Z,72.77
2019-01-26T05:45:37.439Z,72.81
2019-01-26T05:47:10.442Z,73.00
2019-01-26T05:48:43.594Z,71.92
2019-01-26T05:50:16.618Z,71.95
2019-01-26T05:51:50.595Z,73.27
2019-01-26T05:53:23.455Z,73.28
2019-01-26T05:54:56.456Z,73.69
2019-01-26T05:56:29.440Z,73.19
2019-01-26T05:58:03.346Z,73.50
2019-01-26T05:59:37.157Z,73.59
2019-01-26T06:01:11.369Z,73.12
2019-01-26T06:02:45.054Z,74.06
2019-01-26T06:04:18.046Z,73.92
2019-01-26T06:05:52.055Z,73.73
2019-01-26T06:07:25.877Z,73.13
2019-01-26T06:08:59.691Z,73.27
2019-01-26T06:10:33.532Z,73.84
2019-01-26T06:12:07.466Z,73.75
2019-01-26T06:13:40.715Z,73.48
2019-01-26T06:15:13.703Z,72.25
2019-01-26T06:16:46.571Z,71.98
2019-01-26T06:18:19.391Z,73.39
2019-01-26T06:19:52.226Z,73.24
2019-01-26T06:21:26.219Z,73.62
2019-01-26T06:22:59.319Z,73.06
2019-01-26T06:24:33.182Z,73.63
2019-01-26T06:26:07.219Z,72.92
2019-01-26T06:27:41.474Z,72.50
2019-01-26T06:29:14.731Z,73.19
2019-01-26T06:30:50.271Z,73.92
2019-01-26T06:32:24.562Z,73.24
2019-01-26T06:33:59.182Z,73.74
2019-01-26T06:35:32.071Z,74.02
2019-01-26T06:37:06.409Z,73.65
2019-01-26T06:38:43.332Z,73.75
2019-01-26T06:40:20.774Z,73.79
2019-01-26T06:41:54.143Z,74.11
2019-01-26T06:43:29.189Z,74.10
2019-01-26T06:45:03.243Z,73.91
2019-01-26T06:46:36.154Z,73.76
2019-01-26T06:48:10.080Z,73.26
2019-01-26T06:49:44.036Z,73.47
2019-01-26T06:51:17.982Z,73.71
2019-01-26T06:52:51.372Z,73.82
2019-01-26T06:54:25.534Z,74.16
2019-01-26T06:55:58.667Z,73.39
2019-01-26T06:57:31.844Z,73.94
2019-01-26T06:59:05.433Z,73.91
2019-01-26T07:00:40.392Z,73.78
2019-01-26T07:02:14.514Z,74.01
2019-01-26T07:03:49.214Z,73.53
2019-01-26T07:05:36.019Z,73.87
2019-01-26T07:07:17.327Z,73.53
2019-01-26T07:08:50.090Z,73.68
2019-01-26T07:10:23.209Z,73.55
2019-01-26T07:11:56.049Z,73.81
2019-01-26T07:13:29.743Z,73.80
2019-01-26T07:15:03.627Z,73.95
2019-01-26T07:16:36.235Z,73.61
2019-01-26T07:18:09.813Z,74.06
2019-01-26T07:19:43.300Z,73.94
2019-01-26T07:21:17.204Z,73.62
2019-01-26T07:22:51.054Z,73.54
2019-01-26T07:24:25.085Z,73.73
2019-01-26T07:25:59.218Z,73.62
2019-01-26T07:27:32.071Z,73.22
2019-01-26T07:29:05.864Z,73.59
2019-01-26T07:30:39.779Z,73.35
2019-01-26T07:32:12.552Z,73.36
2019-01-26T07:33:45.335Z,73.82
2019-01-26T07:35:19.185Z,73.49
2019-01-26T07:36:53.521Z,73.65
2019-01-26T07:38:27.360Z,77.19
2019-01-26T07:40:01.326Z,78.18
2019-01-26T07:41:35.384Z,85.76
2019-01-26T07:43:10.306Z,88.99
2019-01-26T07:44:44.808Z,89.70
2019-01-26T07:46:18.693Z,88.10
2019-01-26T07:47:52.875Z,83.96
2019-01-26T07:49:26.066Z,82.47
2019-01-26T07:51:00.106Z,80.41
2019-01-26T07:52:34.448Z,78.57
2019-01-26T07:54:08.898Z,77.44
2019-01-26T07:55:41.796Z,74.12
2019-01-26T07:57:14.898Z,74.61
2019-01-26T07:58:49.149Z,75.01
2019-01-26T08:00:24.297Z,75.32
2019-01-26T08:01:58.135Z,75.26
2019-01-26T08:03:31.053Z,74.73
2019-01-26T08:05:05.084Z,74.74
2019-01-26T08:06:39.446Z,75.14
2019-01-26T08:08:13.804Z,74.97
2019-01-26T08:09:48.052Z,74.54
2019-01-26T08:11:22.473Z,74.73
2019-01-26T08:12:55.774Z,74.64
2019-01-26T08:14:29.928Z,72.48
2019-01-26T08:16:02.856Z,73.65
2019-01-26T08:17:36.922Z,71.94
2019-01-26T08:19:12.028Z,73.40
2019-01-26T08:20:44.972Z,70.70
2019-01-26T08:22:19.332Z,72.46
2019-01-26T08:23:53.172Z,76.52
2019-01-26T08:25:27.363Z,81.98
2019-01-26T08:27:01.920Z,80.75
2019-01-26T08:28:37.551Z,78.64
2019-01-26T08:30:11.521Z,77.25
2019-01-26T08:31:45.731Z,75.48
2019-01-26T08:33:20.283Z,75.57
2019-01-26T08:34:54.515Z,74.92
2019-01-26T08:36:29.460Z,74.47
2019-01-26T08:38:02.266Z,74.74
2019-01-26T08:39:36.660Z,74.16
2019-01-26T08:41:11.983Z,74.11
2019-01-26T08:42:46.033Z,74.05
2019-01-26T08:44:19.101Z,73.92
2019-01-26T08:45:52.529Z,74.00
2019-01-26T08:47:25.804Z,73.67
2019-01-26T08:48:59.839Z,73.62
2019-01-26T08:50:35.728Z,73.42
2019-01-26T08:52:09.847Z,73.67
2019-01-26T08:53:44.005Z,73.03
2019-01-26T08:55:18.638Z,73.43
2019-01-26T08:56:52.301Z,72.30
2019-01-26T08:58:25.483Z,89.47
2019-01-26T08:59:58.678Z,92.55
2019-01-26T09:01:32.547Z,93.49
2019-01-26T09:05:14.576Z,93.14
2019-01-26T09:06:52.973Z,88.42
2019-01-26T09:08:27.256Z,83.92
2019-01-26T09:10:00.690Z,81.60
2019-01-26T09:11:34.800Z,80.72
2019-01-26T09:13:08.988Z,79.30
2019-01-26T09:14:43.100Z,77.32
2019-01-26T09:16:17.750Z,77.17
2019-01-26T09:17:51.948Z,75.36
2019-01-26T09:19:25.028Z,80.13
2019-01-26T09:20:59.263Z,76.75
2019-01-26T09:22:32.359Z,75.65
2019-01-26T09:24:06.575Z,74.22
2019-01-26T09:25:39.383Z,75.26
2019-01-26T09:27:13.300Z,75.42
2019-01-26T09:28:47.496Z,72.78
2019-01-26T09:30:22.486Z,73.12
2019-01-26T09:31:57.658Z,73.67
2019-01-26T09:33:31.343Z,73.15
2019-01-26T09:35:05.143Z,69.96
2019-01-26T09:36:38.840Z,71.91
2019-01-26T09:38:12.593Z,71.19
2019-01-26T09:39:46.354Z,71.12
2019-01-26T09:41:21.175Z,71.06
2019-01-26T09:42:55.220Z,71.67
2019-01-26T09:44:29.155Z,71.76
2019-01-26T09:46:03.087Z,72.23
2019-01-26T09:47:36.082Z,72.55
2019-01-26T09:49:09.908Z,71.60
2019-01-26T09:50:42.722Z,68.50
2019-01-26T09:52:15.704Z,69.26
2019-01-26T09:53:49.587Z,68.78
2019-01-26T09:55:24.558Z,71.36
2019-01-26T09:56:58.282Z,71.81
2019-01-26T09:58:32.257Z,71.93
2019-01-26T10:00:04.975Z,70.68
2019-01-26T10:01:39.176Z,72.27
2019-01-26T10:03:13.352Z,72.50
2019-01-26T10:04:47.836Z,72.59
2019-01-26T10:06:22.151Z,70.62
2019-01-26T10:07:56.664Z,71.82
2019-01-26T10:09:33.644Z,73.16
2019-01-26T10:11:07.027Z,72.06
2019-01-26T10:12:41.307Z,72.01
2019-01-26T10:14:15.681Z,71.98
2019-01-26T10:15:49.685Z,71.70
2019-01-26T10:17:23.992Z,70.51
2019-01-26T10:18:57.439Z,69.80
2019-01-26T10:20:34.753Z,71.72
2019-01-26T10:22:08.842Z,72.27
2019-01-26T10:23:43.188Z,71.63
2019-01-26T10:25:16.565Z,71.63
2019-01-26T10:26:51.003Z,71.53
2019-01-26T10:28:24.819Z,70.56
2019-01-26T10:29:58.783Z,71.25
2019-01-26T10:31:32.779Z,69.97
2019-01-26T10:33:05.577Z,70.20
2019-01-26T10:34:39.772Z,71.40
2019-01-26T10:36:31.875Z,69.89
2019-01-26T10:38:06.082Z,69.62
2019-01-26T10:39:39.884Z,70.79
2019-01-26T10:41:21.723Z,69.09
2019-01-26T10:42:55.620Z,69.80
2019-01-26T10:44:37.517Z,69.12
2019-01-26T10:46:11.611Z,71.45
2019-01-26T10:47:45.298Z,71.62
2019-01-26T10:49:18.173Z,70.76
2019-01-26T10:50:53.119Z,72.05
2019-01-26T10:52:27.906Z,71.62
2019-01-26T10:54:00.535Z,71.60
2019-01-26T10:55:34.342Z,71.94
2019-01-26T10:57:07.146Z,71.71
2019-01-26T10:58:41.324Z,70.99
2019-01-26T11:00:15.064Z,71.65
2019-01-26T11:01:48.095Z,69.87
2019-01-26T11:03:22.945Z,71.36
2019-01-26T11:04:55.654Z,71.05
2019-01-26T11:06:29.402Z,71.01
2019-01-26T11:08:03.556Z,71.54
2019-01-26T11:09:36.725Z,71.50
2019-01-26T11:11:10.773Z,71.15
2019-01-26T11:12:44.865Z,71.09
2019-01-26T11:14:18.871Z,70.79
2019-01-26T11:15:52.851Z,70.83
2019-01-26T11:17:26.864Z,69.67
2019-01-26T11:19:07.692Z,69.79
2019-01-26T11:20:35.330Z,69.71
2019-01-26T11:22:09.624Z,69.63
2019-01-26T11:23:43.273Z,70.53
2019-01-26T11:25:18.018Z,71.19
2019-01-26T11:26:51.788Z,70.01
2019-01-26T11:28:26.215Z,69.15
2019-01-26T11:30:00.531Z,70.20
2019-01-26T11:31:35.073Z,71.07
2019-01-26T11:33:09.587Z,70.64
2019-01-26T11:34:43.608Z,68.89
2019-01-26T11:36:18.081Z,69.46
2019-01-26T11:37:53.641Z,67.96
2019-01-26T11:39:31.458Z,68.72
2019-01-26T11:41:05.566Z,69.86
2019-01-26T11:42:38.624Z,71.10
2019-01-26T11:44:11.937Z,70.34
2019-01-26T11:45:56.285Z,70.83
2019-01-26T11:47:29.942Z,69.00
2019-01-26T11:49:04.669Z,70.74
2019-01-26T11:50:42.659Z,70.71
2019-01-26T11:52:17.944Z,71.49
2019-01-26T11:53:50.678Z,70.32
2019-01-26T11:55:47.038Z,70.42
2019-01-26T11:57:27.878Z,69.64
2019-01-26T11:59:01.636Z,69.99
2019-01-26T12:00:59.555Z,69.89
2019-01-26T12:02:34.165Z,69.80
2019-01-26T12:05:10.020Z,70.68
2019-01-26T12:06:48.251Z,71.02
2019-01-26T12:08:21.415Z,69.64
2019-01-26T12:09:55.640Z,70.30
2019-01-26T12:11:30.258Z,70.21
2019-01-26T12:13:04.083Z,70.34
2019-01-26T12:14:38.965Z,70.10
2019-01-26T12:16:12.663Z,70.95
2019-01-26T12:17:46.557Z,69.65
2019-01-26T12:19:22.440Z,70.95
2019-01-26T12:20:52.644Z,70.58
2019-01-26T12:22:25.512Z,71.69
2019-01-26T12:23:59.637Z,69.71
2019-01-26T12:25:33.746Z,71.20
2019-01-26T12:27:07.677Z,70.71
2019-01-26T12:28:40.381Z,70.88
2019-01-26T12:30:14.612Z,71.36
2019-01-26T12:31:48.412Z,71.69
2019-01-26T12:33:22.682Z,71.54
2019-01-26T12:34:56.753Z,70.58
2019-01-26T12:36:30.120Z,71.71
2019-01-26T12:38:04.218Z,70.76
2019-01-26T12:39:38.333Z,70.41
2019-01-26T12:41:12.335Z,70.98
2019-01-26T12:42:47.607Z,69.09
2019-01-26T12:44:20.806Z,69.83
2019-01-26T12:45:54.883Z,70.26
2019-01-26T12:47:28.183Z,71.31
2019-01-26T12:49:01.431Z,69.84
2019-01-26T12:50:35.233Z,71.17
2019-01-26T12:52:09.239Z,72.16
2019-01-26T12:53:42.347Z,72.55
2019-01-26T12:55:15.235Z,72.33
2019-01-26T12:56:49.222Z,72.21
2019-01-26T12:58:23.572Z,72.04
2019-01-26T12:59:57.492Z,72.42
2019-01-26T13:01:30.514Z,72.50
2019-01-26T13:03:03.801Z,71.32
2019-01-26T13:04:37.611Z,71.84
2019-01-26T13:06:11.370Z,70.34
2019-01-26T13:07:45.213Z,69.49
2019-01-26T13:09:19.176Z,69.58
2019-01-26T13:10:57.186Z,70.53
2019-01-26T13:12:31.380Z,71.96
2019-01-26T13:14:05.520Z,71.10
2019-01-26T13:15:39.420Z,77.69
2019-01-26T13:17:14.052Z,88.16
2019-01-26T13:18:48.676Z,89.52
2019-01-26T13:20:24.221Z,92.35
2019-01-26T13:21:59.046Z,93.35
2019-01-26T13:23:32.751Z,93.65
2019-01-26T13:25:06.954Z,93.60
2019-01-26T13:26:40.985Z,92.48
2019-01-26T13:28:15.259Z,90.09
2019-01-26T13:29:49.278Z,87.57
2019-01-26T13:31:23.778Z,86.55
2019-01-26T13:32:57.612Z,84.88
2019-01-26T13:34:30.665Z,82.67
2019-01-26T13:36:04.667Z,80.67
2019-01-26T13:37:37.883Z,80.36
2019-01-26T13:39:12.761Z,80.18
2019-01-26T13:40:47.091Z,78.90
2019-01-26T13:42:19.894Z,79.95
2019-01-26T13:43:54.015Z,79.22
2019-01-26T13:45:31.332Z,77.68
2019-01-26T13:47:05.573Z,76.96
2019-01-26T13:48:40.626Z,77.10
2019-01-26T13:50:14.848Z,76.30
2019-01-26T13:51:49.492Z,74.99
2019-01-26T13:53:22.513Z,75.05
2019-01-26T13:54:56.484Z,75.43
2019-01-26T13:56:30.500Z,74.84
2019-01-26T13:58:04.571Z,74.23
2019-01-26T13:59:38.662Z,74.28
2019-01-26T14:01:12.745Z,74.51
2019-01-26T14:02:46.934Z,73.99
2019-01-26T14:04:21.424Z,74.03
2019-01-26T14:05:55.096Z,72.42
2019-01-26T14:07:29.216Z,71.80
2019-01-26T14:09:03.283Z,71.36
2019-01-26T14:10:37.230Z,71.23
2019-01-26T14:12:11.382Z,71.34
2019-01-26T14:13:45.574Z,72.77
2019-01-26T14:15:19.957Z,70.78
2019-01-26T14:16:53.030Z,68.93
2019-01-26T14:18:27.223Z,70.13
2019-01-26T14:20:01.926Z,71.02
2019-01-26T14:21:36.334Z,71.99
2019-01-26T14:23:10.597Z,70.06
2019-01-26T14:24:44.476Z,70.87
2019-01-26T14:28:14.292Z,70.54
2019-01-26T14:29:48.023Z,71.56
2019-01-26T14:31:24.964Z,70.86
2019-01-26T14:33:00.583Z,70.53
2019-01-26T14:34:33.487Z,72.16
2019-01-26T14:36:07.391Z,70.41
2019-01-26T14:37:42.421Z,70.94
2019-01-26T14:39:17.117Z,70.52
2019-01-26T14:40:51.086Z,69.82
2019-01-26T14:42:25.100Z,67.67
2019-01-26T14:43:59.127Z,70.56
2019-01-26T14:45:35.000Z,71.94
2019-01-26T14:47:08.795Z,71.07
2019-01-26T14:48:42.679Z,71.98
2019-01-26T14:50:16.628Z,72.75
2019-01-26T14:51:50.507Z,73.31
2019-01-26T14:53:24.411Z,69.66
2019-01-26T14:54:58.412Z,72.16
2019-01-26T14:56:32.292Z,72.83
2019-01-26T14:58:06.250Z,72.37
2019-01-26T14:59:41.144Z,72.03
2019-01-26T15:01:15.152Z,72.20
2019-01-26T15:02:47.847Z,72.07
2019-01-26T15:04:21.827Z,71.47
2019-01-26T15:05:55.780Z,70.62
2019-01-26T15:07:30.064Z,72.25
2019-01-26T15:09:04.124Z,72.21
2019-01-26T15:10:38.133Z,71.79
2019-01-26T15:12:11.962Z,72.73
2019-01-26T15:13:45.747Z,71.41
2019-01-26T15:15:22.005Z,69.45
2019-01-26T15:16:56.530Z,68.55
2019-01-26T15:18:30.688Z,71.19
2019-01-26T15:20:06.262Z,71.66
2019-01-26T15:21:39.807Z,69.67
2019-01-26T15:23:13.894Z,68.61
2019-01-26T15:24:48.785Z,68.26
2019-01-26T15:26:22.909Z,71.74
2019-01-26T15:27:56.818Z,70.37
2019-01-26T15:29:30.708Z,71.34
2019-01-26T15:31:06.036Z,72.12
2019-01-26T15:32:39.852Z,71.77
2019-01-26T15:34:13.720Z,73.27
2019-01-26T15:35:47.859Z,73.36
2019-01-26T15:37:21.767Z,71.74
2019-01-26T15:38:55.957Z,72.60
2019-01-26T15:40:30.888Z,73.00
2019-01-26T15:42:05.206Z,73.36
2019-01-26T15:43:39.094Z,72.17
2019-01-26T15:45:13.498Z,71.21
2019-01-26T15:46:47.425Z,72.09
2019-01-26T15:48:22.651Z,72.03
2019-01-26T15:49:56.332Z,71.19
2019-01-26T15:51:30.135Z,69.39
2019-01-26T15:53:03.959Z,71.97
2019-01-26T15:54:36.831Z,72.14
2019-01-26T15:56:10.640Z,74.75
2019-01-26T15:57:44.518Z,90.46
2019-01-26T15:59:18.646Z,93.31
2019-01-26T16:00:56.628Z,93.83
2019-01-26T16:02:29.424Z,94.53
2019-01-26T16:04:03.832Z,94.99
2019-01-26T16:05:37.569Z,95.24
2019-01-26T16:07:11.621Z,95.02
2019-01-26T16:08:45.325Z,95.17
2019-01-26T16:10:19.138Z,95.21
2019-01-26T16:11:53.416Z,93.86
2019-01-26T16:13:27.352Z,91.91
2019-01-26T16:15:01.337Z,89.98
2019-01-26T16:16:36.285Z,89.15
2019-01-26T16:18:10.177Z,88.50
2019-01-26T16:19:44.497Z,85.56
2019-01-26T16:21:18.303Z,84.14
2019-01-26T16:22:51.993Z,83.56
2019-01-26T16:24:25.943Z,90.29
2019-01-26T16:26:00.038Z,93.35
2019-01-26T16:27:33.794Z,94.22
2019-01-26T16:29:07.911Z,94.57
2019-01-26T16:30:44.894Z,94.32
2019-01-26T16:32:18.035Z,92.34
2019-01-26T16:33:53.108Z,89.05
2019-01-26T16:35:28.844Z,87.19
2019-01-26T16:37:02.470Z,83.83
2019-01-26T16:38:36.655Z,81.65
2019-01-26T16:40:10.463Z,81.44
2019-01-26T16:41:45.075Z,80.11
2019-01-26T16:43:19.058Z,78.87
2019-01-26T16:44:53.073Z,78.43
2019-01-26T16:46:27.108Z,77.71
2019-01-26T16:48:01.375Z,77.48
2019-01-26T16:49:35.329Z,77.11
2019-01-26T16:51:09.552Z,77.07
2019-01-26T16:52:43.466Z,76.28
2019-01-26T16:54:17.535Z,76.07
2019-01-26T16:55:51.931Z,75.65
2019-01-26T16:57:26.575Z,75.78
2019-01-26T16:59:00.466Z,75.79
2019-01-26T17:00:40.599Z,75.54
2019-01-26T17:02:14.772Z,76.00
2019-01-26T17:03:49.190Z,75.99
2019-01-26T17:05:25.906Z,75.35
2019-01-26T17:06:58.653Z,76.03
2019-01-26T17:08:33.773Z,75.44
2019-01-26T17:10:07.650Z,74.59
2019-01-26T17:11:41.800Z,75.06
2019-01-26T17:13:15.995Z,74.53
2019-01-26T17:14:50.365Z,74.66
2019-01-26T17:16:25.318Z,74.31
2019-01-26T17:17:59.208Z,74.52
2019-01-26T17:19:33.026Z,74.37
2019-01-26T17:21:07.014Z,74.05
2019-01-26T17:22:41.377Z,74.08
2019-01-26T17:24:15.920Z,74.12
2019-01-26T17:25:50.000Z,74.41
2019-01-26T17:27:24.017Z,74.19
2019-01-26T17:28:58.622Z,73.83
2019-01-26T17:30:35.773Z,73.83
2019-01-26T17:32:09.811Z,73.75
2019-01-26T17:33:44.505Z,73.35
2019-01-26T17:35:18.639Z,73.67
2019-01-26T17:36:52.614Z,73.23
2019-01-26T17:38:26.292Z,72.94
2019-01-26T17:40:01.442Z,72.89
2019-01-26T17:41:34.242Z,72.84
2019-01-26T17:43:08.059Z,73.20
2019-01-26T17:44:41.864Z,73.02
2019-01-26T17:46:16.277Z,72.78
2019-01-26T17:47:50.479Z,72.68
2019-01-26T17:49:24.563Z,72.54
2019-01-26T17:50:58.628Z,72.76
2019-01-26T17:52:31.768Z,72.41
2019-01-26T17:54:05.672Z,72.67
2019-01-26T17:55:39.784Z,72.75
2019-01-26T17:57:14.958Z,72.74
2019-01-26T17:58:48.672Z,72.16
2019-01-26T18:00:24.836Z,72.34
2019-01-26T18:01:58.779Z,72.70
2019-01-26T18:03:33.542Z,72.29
2019-01-26T18:05:07.777Z,72.71
2019-01-26T18:06:41.927Z,72.61
2019-01-26T18:08:15.946Z,72.15
2019-01-26T18:09:50.012Z,72.03
2019-01-26T18:11:24.000Z,72.19
2019-01-26T18:12:57.822Z,72.45
2019-01-26T18:14:32.042Z,72.10
2019-01-26T18:16:05.847Z,72.13
2019-01-26T18:17:39.507Z,72.26
2019-01-26T18:19:13.506Z,72.36
2019-01-26T18:20:49.423Z,72.41
2019-01-26T18:22:23.339Z,72.07
2019-01-26T18:23:57.497Z,72.17
2019-01-26T18:25:34.576Z,72.18
2019-01-26T18:27:10.301Z,72.26
2019-01-26T18:28:44.209Z,72.03
2019-01-26T18:30:19.043Z,72.00
2019-01-26T18:31:53.163Z,72.10
2019-01-26T18:33:29.126Z,71.80
2019-01-26T18:35:05.985Z,72.03
2019-01-26T18:36:42.727Z,71.89
2019-01-26T18:38:19.591Z,76.77
2019-01-26T18:39:56.641Z,76.71
2019-01-26T18:41:31.517Z,75.15
2019-01-26T18:43:06.449Z,73.91
2019-01-26T18:44:41.142Z,73.42
2019-01-26T18:46:15.073Z,73.10
2019-01-26T18:47:49.143Z,72.56
2019-01-26T18:49:23.175Z,72.47
2019-01-26T18:50:59.509Z,72.40
2019-01-26T18:52:35.535Z,72.41
2019-01-26T18:54:09.447Z,71.81
2019-01-26T18:55:42.356Z,72.07
2019-01-26T18:57:16.417Z,71.97
2019-01-26T18:58:51.648Z,71.63
2019-01-26T19:00:27.923Z,71.64
2019-01-26T19:02:03.906Z,71.83
2019-01-26T19:04:56.506Z,71.57
2019-01-26T19:06:30.461Z,71.79
2019-01-26T19:08:04.273Z,71.68
2019-01-26T19:09:38.104Z,71.48
2019-01-26T19:11:12.154Z,71.68
2019-01-26T19:12:45.731Z,71.54
2019-01-26T19:14:20.876Z,71.55
2019-01-26T19:15:54.891Z,71.20
2019-01-26T19:17:29.910Z,71.53
2019-01-26T19:19:04.057Z,71.49
2019-01-26T19:20:39.148Z,71.36
2019-01-26T19:22:13.134Z,71.53
2019-01-26T19:23:47.208Z,71.63
2019-01-26T19:25:22.311Z,71.47
2019-01-26T19:26:56.628Z,71.63
2019-01-26T19:28:30.632Z,71.51
2019-01-26T19:30:04.336Z,71.63
2019-01-26T19:31:39.178Z,71.05
2019-01-26T19:33:13.129Z,71.60
2019-01-26T19:34:47.371Z,71.23
2019-01-26T19:36:21.272Z,71.54
2019-01-26T19:37:56.031Z,71.49
2019-01-26T19:39:31.854Z,71.21
2019-01-26T19:41:05.639Z,71.12
2019-01-26T19:42:39.243Z,71.36
2019-01-26T19:44:13.347Z,71.17
2019-01-26T19:45:47.452Z,71.35
2019-01-26T19:47:22.142Z,71.01
2019-01-26T19:48:56.051Z,71.42
2019-01-26T19:50:32.041Z,71.32
2019-01-26T19:52:05.957Z,71.38
2019-01-26T19:53:39.827Z,71.52
2019-01-26T19:55:13.916Z,71.42
2019-01-26T19:56:48.047Z,71.39
2019-01-26T19:58:22.942Z,71.08
2019-01-26T19:59:57.666Z,71.07
2019-01-26T20:01:31.792Z,71.08
2019-01-26T20:03:05.700Z,71.63
2019-01-26T20:04:40.526Z,71.36
2019-01-26T20:06:14.391Z,71.32
2019-01-26T20:07:48.433Z,71.06
2019-01-26T20:09:24.698Z,71.53
2019-01-26T20:10:58.646Z,71.49
2019-01-26T20:12:33.657Z,71.31
2019-01-26T20:14:07.815Z,71.60
2019-01-26T20:15:42.758Z,71.12
2019-01-26T20:17:16.466Z,70.81
2019-01-26T20:18:50.172Z,71.38